SBOSBO CPT / FACT
Speedbird OnlineSpeedbird Online CPT / FACT

Cape Town International Airport
07:53 18.6°C

Location Cape Town, South Africa
Latitude: -33.9648017883
Longitude: 18.6016998291
Web Airport Website | Wikipedia
Altitude 46 Meter / 151 Feet
Distance 9,674 KM / 6,011 Miles
from London.
Time Zone UTC +2 hours (Africa/Johannesburg)
Codes IATA: CPT
ICAO: FACT
Currency £1 equals ZAR 21.30
Runways
RunwayLength (m)Surface
013201Asphalt
161701Asphalt
193201Asphalt
341701Asphalt
Radio
TypeDescriptionFrequency
ACApron Control122.65
APPApproach119.7
APPDirector124.5
ATISATIS127
ATISLong Range ATIS127.6
GNDGround121.9
TWRTower118.1
Live ATC
METAR FACT 290530Z 14008KT 9999 FEW030 19/10 Q1015 NOSIG
TAF TAF FACT 290400Z 2906/3012 16015KT CAVOK TX28/2912Z TN16/3003Z PROB30 TEMPO 2912/2917 16020G30KT BECMG 2918/2920 16005KT
Weather As Of 29 Jan 2023 07:53
Description Few clouds
Wind 15 km/h from South-East (140°)
Cloud Cover 20%
Precipitation Rain: none, Snow: none
Sunrise 06:03
Sunset 19:53
Lounges Bidvest Premier Lounge - TEMPORARILY CLOSED, Departure Terminal
British Airways Lounge (Open), International
Rotations During the last 90 days there were
156 flights from LHR
18 flights from LGW
1 flights from CPT
154 flights to LHR
17 flights to LGW
1 flights to CPT



Support Speedbird Online

© 2017-2023 Speedbird Online